This is the latest recevied weather packets stored in our database for station/object WX6HNX-5. If no packets are shown the sender has not sent any weather packets the latest 10 day(s).
| Time | Temp. | Humidity | Pressure | Rain* | Wind** | Luminosity | Snow |
|---|---|---|---|---|---|---|---|
| 1778105203 | 25.56° C | 43% | 1016.4 hPa | 0 mm | - | - | - |
| 1778104904 | 25.56° C | 43% | 1016.4 hPa | 0 mm | - | - | - |
| 1778103282 | 25° C | 44% | 1016.8 hPa | 0 mm | - | - | - |
| 1778102982 | 24.44° C | 45% | 1016.8 hPa | 0 mm | - | - | - |
| 1778102382 | 24.44° C | 44% | 1016.9 hPa | 0 mm | - | - | - |
| 1778102082 | 24.44° C | 45% | 1017 hPa | 0 mm | - | - | - |
| 1778098482 | 23.89° C | 46% | 1017.4 hPa | 0 mm | - | - | - |
| 1778096081 | 22.78° C | 49% | 1017.9 hPa | 0 mm | - | - | - |
| 1778095181 | 22.22° C | 51% | 1018.2 hPa | 0 mm | - | - | - |
| 1778094783 | 22.22° C | 51% | 1018.3 hPa | 0 mm | - | - | - |
| 1778091183 | 21.11° C | 56% | 1019 hPa | 0 mm | - | - | - |
| 1778090283 | 21.11° C | 57% | 1019.2 hPa | 0 mm | - | - | - |
| 1778088090 | 18.89° C | 64% | 1019.5 hPa | 0 mm | - | - | - |
| 1778086290 | 17.78° C | 68% | 1019.6 hPa | 0 mm | - | - | - |
| 1778085690 | 17.78° C | 70% | 1019.6 hPa | 0 mm | - | - | - |
| 1778085390 | 17.22° C | 71% | 1019.6 hPa | 0 mm | - | - | - |
| 1778084790 | 17.22° C | 70% | 1019.7 hPa | 0 mm | - | - | - |
| 1778081190 | 15° C | 75% | 1019.7 hPa | 0 mm | - | - | - |
| 1778080890 | 15° C | 76% | 1019.8 hPa | 0 mm | - | - | - |
| 1778079990 | 14.44° C | 77% | 1019.8 hPa | 0 mm | - | - | - |
| 1778077483 | 12.78° C | 82% | 1019.6 hPa | 0 mm | - | - | - |
| 1778074483 | 11.11° C | 84% | 1019 hPa | 0 mm | - | - | - |
| 1778074183 | 11.11° C | 84% | 1019 hPa | 0 mm | - | - | - |
| 1778073284 | 11.11° C | 83% | 1018.9 hPa | 0 mm | - | - | - |
| 1778072983 | 11.11° C | 82% | 1018.8 hPa | 0 mm | - | - | - |
* Rain latest hour (hover to see other rain measurements)
** Current wind speed in m/s (hover to see current wind gust speed)